sensor_id;sensor_type;location;lat;lon;timestamp;P1;durP1;ratioP1;P2;durP2;ratioP2
44670;SDS011;48397;53.016;-2.260;2022-10-17T00:03:31;12.27;;;4.78;;
44670;SDS011;48397;53.016;-2.260;2022-10-17T00:06:03;12.13;;;4.40;;
44670;SDS011;48397;53.016;-2.260;2022-10-17T00:08:33;9.45;;;4.28;;
44670;SDS011;48397;53.016;-2.260;2022-10-17T00:11:03;16.83;;;5.75;;
44670;SDS011;48397;53.016;-2.260;2022-10-17T00:13:32;12.18;;;4.70;;
44670;SDS011;48397;53.016;-2.260;2022-10-17T00:16:00;9.98;;;4.60;;
44670;SDS011;48397;53.016;-2.260;2022-10-17T00:18:28;9.20;;;3.85;;
44670;SDS011;48397;53.016;-2.260;2022-10-17T00:20:56;12.82;;;4.18;;
44670;SDS011;48397;53.016;-2.260;2022-10-17T00:23:24;6.28;;;3.10;;
44670;SDS011;48397;53.016;-2.260;2022-10-17T00:25:57;11.02;;;3.22;;
44670;SDS011;48397;53.016;-2.260;2022-10-17T00:28:28;9.75;;;4.05;;
44670;SDS011;48397;53.016;-2.260;2022-10-17T00:31:01;7.93;;;3.10;;
44670;SDS011;48397;53.016;-2.260;2022-10-17T00:33:30;10.30;;;2.85;;
44670;SDS011;48397;53.016;-2.260;2022-10-17T00:36:13;12.55;;;3.90;;
44670;SDS011;48397;53.016;-2.260;2022-10-17T00:38:43;9.55;;;2.95;;
44670;SDS011;48397;53.016;-2.260;2022-10-17T00:41:14;11.25;;;3.05;;
44670;SDS011;48397;53.016;-2.260;2022-10-17T00:43:51;11.27;;;3.20;;
44670;SDS011;48397;53.016;-2.260;2022-10-17T00:46:19;14.50;;;3.58;;
44670;SDS011;48397;53.016;-2.260;2022-10-17T00:48:47;11.52;;;3.30;;
44670;SDS011;48397;53.016;-2.260;2022-10-17T00:51:17;10.93;;;3.33;;
44670;SDS011;48397;53.016;-2.260;2022-10-17T00:53:49;15.40;;;4.20;;
44670;SDS011;48397;53.016;-2.260;2022-10-17T00:56:18;12.73;;;2.83;;
44670;SDS011;48397;53.016;-2.260;2022-10-17T00:58:47;14.60;;;3.50;;
44670;SDS011;48397;53.016;-2.260;2022-10-17T01:01:15;10.38;;;3.08;;
44670;SDS011;48397;53.016;-2.260;2022-10-17T01:03:42;15.52;;;3.20;;
44670;SDS011;48397;53.016;-2.260;2022-10-17T01:06:13;8.60;;;2.97;;
44670;SDS011;48397;53.016;-2.260;2022-10-17T01:08:40;12.95;;;3.50;;
44670;SDS011;48397;53.016;-2.260;2022-10-17T01:11:25;12.45;;;3.00;;
44670;SDS011;48397;53.016;-2.260;2022-10-17T01:22:16;9.75;;;2.92;;
44670;SDS011;48397;53.016;-2.260;2022-10-17T01:27:51;14.10;;;3.47;;
44670;SDS011;48397;53.016;-2.260;2022-10-17T01:30:58;10.90;;;2.95;;
44670;SDS011;48397;53.016;-2.260;2022-10-17T01:39:05;9.50;;;2.13;;
44670;SDS011;48397;53.016;-2.260;2022-10-17T01:42:18;8.27;;;1.70;;
44670;SDS011;48397;53.016;-2.260;2022-10-17T01:47:49;7.80;;;2.03;;
44670;SDS011;48397;53.016;-2.260;2022-10-17T01:50:22;7.53;;;1.92;;
44670;SDS011;48397;53.016;-2.260;2022-10-17T01:52:55;5.95;;;2.50;;
44670;SDS011;48397;53.016;-2.260;2022-10-17T01:55:32;8.07;;;1.90;;
44670;SDS011;48397;53.016;-2.260;2022-10-17T01:58:06;9.52;;;2.15;;
44670;SDS011;48397;53.016;-2.260;2022-10-17T02:01:02;10.13;;;2.40;;
44670;SDS011;48397;53.016;-2.260;2022-10-17T02:03:32;6.60;;;2.20;;
44670;SDS011;48397;53.016;-2.260;2022-10-17T02:06:01;8.88;;;2.20;;
44670;SDS011;48397;53.016;-2.260;2022-10-17T02:08:39;9.13;;;2.25;;
44670;SDS011;48397;53.016;-2.260;2022-10-17T02:11:10;10.50;;;2.47;;
44670;SDS011;48397;53.016;-2.260;2022-10-17T02:21:55;7.40;;;2.38;;
44670;SDS011;48397;53.016;-2.260;2022-10-17T02:24:32;9.75;;;2.13;;
44670;SDS011;48397;53.016;-2.260;2022-10-17T02:27:11;7.15;;;2.17;;
44670;SDS011;48397;53.016;-2.260;2022-10-17T02:29:57;12.20;;;2.38;;
44670;SDS011;48397;53.016;-2.260;2022-10-17T02:32:49;9.60;;;2.60;;
44670;SDS011;48397;53.016;-2.260;2022-10-17T02:35:24;7.65;;;2.40;;
44670;SDS011;48397;53.016;-2.260;2022-10-17T02:37:56;13.70;;;2.60;;
44670;SDS011;48397;53.016;-2.260;2022-10-17T02:40:26;10.13;;;2.40;;
44670;SDS011;48397;53.016;-2.260;2022-10-17T02:42:58;9.05;;;2.40;;
44670;SDS011;48397;53.016;-2.260;2022-10-17T02:45:29;5.72;;;2.13;;
44670;SDS011;48397;53.016;-2.260;2022-10-17T02:48:04;6.28;;;2.25;;
44670;SDS011;48397;53.016;-2.260;2022-10-17T02:50:41;7.85;;;2.42;;
44670;SDS011;48397;53.016;-2.260;2022-10-17T02:53:38;13.48;;;3.03;;
44670;SDS011;48397;53.016;-2.260;2022-10-17T02:56:15;13.70;;;3.03;;
44670;SDS011;48397;53.016;-2.260;2022-10-17T02:58:46;6.50;;;2.80;;
44670;SDS011;48397;53.016;-2.260;2022-10-17T03:01:17;12.55;;;3.25;;
44670;SDS011;48397;53.016;-2.260;2022-10-17T03:03:45;11.77;;;3.00;;
44670;SDS011;48397;53.016;-2.260;2022-10-17T03:06:13;10.23;;;2.92;;
44670;SDS011;48397;53.016;-2.260;2022-10-17T03:08:41;10.55;;;3.35;;
44670;SDS011;48397;53.016;-2.260;2022-10-17T03:11:09;10.90;;;3.22;;
44670;SDS011;48397;53.016;-2.260;2022-10-17T03:13:39;12.85;;;2.90;;
44670;SDS011;48397;53.016;-2.260;2022-10-17T03:16:07;9.80;;;2.97;;
44670;SDS011;48397;53.016;-2.260;2022-10-17T03:21:03;9.98;;;3.40;;
44670;SDS011;48397;53.016;-2.260;2022-10-17T03:23:31;13.07;;;3.95;;
44670;SDS011;48397;53.016;-2.260;2022-10-17T03:26:02;15.07;;;3.90;;
44670;SDS011;48397;53.016;-2.260;2022-10-17T03:28:35;12.57;;;3.80;;
44670;SDS011;48397;53.016;-2.260;2022-10-17T03:31:07;12.15;;;3.65;;
44670;SDS011;48397;53.016;-2.260;2022-10-17T03:33:43;14.23;;;3.40;;
44670;SDS011;48397;53.016;-2.260;2022-10-17T03:36:12;11.60;;;3.40;;
44670;SDS011;48397;53.016;-2.260;2022-10-17T03:38:42;12.45;;;3.40;;
44670;SDS011;48397;53.016;-2.260;2022-10-17T03:41:10;12.20;;;3.45;;
44670;SDS011;48397;53.016;-2.260;2022-10-17T03:43:39;10.98;;;3.10;;
44670;SDS011;48397;53.016;-2.260;2022-10-17T03:46:07;17.98;;;3.38;;
44670;SDS011;48397;53.016;-2.260;2022-10-17T03:48:36;18.05;;;3.22;;
44670;SDS011;48397;53.016;-2.260;2022-10-17T03:51:06;16.83;;;2.90;;
44670;SDS011;48397;53.016;-2.260;2022-10-17T03:53:40;8.18;;;2.70;;
44670;SDS011;48397;53.016;-2.260;2022-10-17T03:56:18;16.88;;;3.83;;
44670;SDS011;48397;53.016;-2.260;2022-10-17T03:58:58;11.80;;;2.80;;
44670;SDS011;48397;53.016;-2.260;2022-10-17T04:01:28;11.57;;;3.25;;
44670;SDS011;48397;53.016;-2.260;2022-10-17T04:03:56;8.73;;;2.95;;
44670;SDS011;48397;53.016;-2.260;2022-10-17T04:06:27;13.07;;;2.90;;
44670;SDS011;48397;53.016;-2.260;2022-10-17T04:11:27;11.63;;;2.83;;
44670;SDS011;48397;53.016;-2.260;2022-10-17T04:13:58;16.23;;;2.85;;
44670;SDS011;48397;53.016;-2.260;2022-10-17T04:16:27;11.77;;;2.40;;
44670;SDS011;48397;53.016;-2.260;2022-10-17T04:19:01;10.52;;;2.90;;
44670;SDS011;48397;53.016;-2.260;2022-10-17T04:21:35;8.68;;;2.42;;
44670;SDS011;48397;53.016;-2.260;2022-10-17T04:24:05;17.63;;;2.72;;
44670;SDS011;48397;53.016;-2.260;2022-10-17T04:26:42;12.05;;;2.85;;
44670;SDS011;48397;53.016;-2.260;2022-10-17T04:29:11;17.75;;;2.45;;
44670;SDS011;48397;53.016;-2.260;2022-10-17T04:31:40;11.38;;;2.50;;
44670;SDS011;48397;53.016;-2.260;2022-10-17T04:34:26;13.48;;;2.65;;
44670;SDS011;48397;53.016;-2.260;2022-10-17T04:36:54;6.40;;;2.28;;
44670;SDS011;48397;53.016;-2.260;2022-10-17T04:39:22;10.00;;;2.60;;
44670;SDS011;48397;53.016;-2.260;2022-10-17T04:44:17;15.65;;;2.58;;
44670;SDS011;48397;53.016;-2.260;2022-10-17T04:46:50;15.13;;;2.83;;
44670;SDS011;48397;53.016;-2.260;2022-10-17T04:49:18;38.00;;;4.78;;
44670;SDS011;48397;53.016;-2.260;2022-10-17T04:51:50;12.55;;;2.53;;
44670;SDS011;48397;53.016;-2.260;2022-10-17T04:54:36;14.57;;;2.92;;
44670;SDS011;48397;53.016;-2.260;2022-10-17T04:57:08;17.92;;;2.70;;
44670;SDS011;48397;53.016;-2.260;2022-10-17T04:59:38;15.43;;;3.15;;
44670;SDS011;48397;53.016;-2.260;2022-10-17T05:02:27;19.73;;;2.63;;
44670;SDS011;48397;53.016;-2.260;2022-10-17T05:07:23;15.27;;;2.75;;
44670;SDS011;48397;53.016;-2.260;2022-10-17T05:10:02;9.82;;;2.47;;
44670;SDS011;48397;53.016;-2.260;2022-10-17T05:12:31;16.65;;;2.45;;
44670;SDS011;48397;53.016;-2.260;2022-10-17T05:14:58;13.68;;;2.45;;
44670;SDS011;48397;53.016;-2.260;2022-10-17T05:17:27;18.02;;;2.83;;
44670;SDS011;48397;53.016;-2.260;2022-10-17T05:19:55;14.30;;;2.72;;
44670;SDS011;48397;53.016;-2.260;2022-10-17T05:22:23;17.27;;;2.78;;
44670;SDS011;48397;53.016;-2.260;2022-10-17T05:24:51;11.95;;;2.30;;
44670;SDS011;48397;53.016;-2.260;2022-10-17T05:27:18;10.43;;;2.20;;
44670;SDS011;48397;53.016;-2.260;2022-10-17T05:29:46;17.67;;;3.10;;
44670;SDS011;48397;53.016;-2.260;2022-10-17T05:32:20;16.80;;;2.45;;
44670;SDS011;48397;53.016;-2.260;2022-10-17T05:34:47;22.30;;;3.28;;
44670;SDS011;48397;53.016;-2.260;2022-10-17T05:37:15;14.75;;;2.25;;
44670;SDS011;48397;53.016;-2.260;2022-10-17T05:39:48;15.55;;;2.88;;
44670;SDS011;48397;53.016;-2.260;2022-10-17T05:42:18;11.18;;;2.13;;
44670;SDS011;48397;53.016;-2.260;2022-10-17T05:47:16;14.75;;;2.10;;
44670;SDS011;48397;53.016;-2.260;2022-10-17T05:49:44;16.17;;;2.83;;
44670;SDS011;48397;53.016;-2.260;2022-10-17T05:52:24;16.85;;;2.60;;
44670;SDS011;48397;53.016;-2.260;2022-10-17T05:55:07;16.13;;;2.55;;
44670;SDS011;48397;53.016;-2.260;2022-10-17T06:00:05;20.35;;;2.50;;
44670;SDS011;48397;53.016;-2.260;2022-10-17T06:02:46;19.88;;;2.70;;
44670;SDS011;48397;53.016;-2.260;2022-10-17T06:05:18;14.00;;;2.33;;
44670;SDS011;48397;53.016;-2.260;2022-10-17T06:07:46;15.50;;;2.78;;
44670;SDS011;48397;53.016;-2.260;2022-10-17T06:10:16;12.48;;;2.28;;
44670;SDS011;48397;53.016;-2.260;2022-10-17T06:12:44;18.98;;;2.55;;
44670;SDS011;48397;53.016;-2.260;2022-10-17T06:15:14;16.02;;;3.10;;
44670;SDS011;48397;53.016;-2.260;2022-10-17T06:17:47;17.58;;;2.10;;
44670;SDS011;48397;53.016;-2.260;2022-10-17T06:22:42;10.85;;;2.10;;
44670;SDS011;48397;53.016;-2.260;2022-10-17T06:25:15;10.48;;;2.20;;
44670;SDS011;48397;53.016;-2.260;2022-10-17T06:27:43;16.10;;;3.50;;
44670;SDS011;48397;53.016;-2.260;2022-10-17T06:30:11;12.98;;;2.65;;
44670;SDS011;48397;53.016;-2.260;2022-10-17T06:32:39;18.90;;;2.35;;
44670;SDS011;48397;53.016;-2.260;2022-10-17T06:35:07;15.10;;;2.65;;
44670;SDS011;48397;53.016;-2.260;2022-10-17T06:37:35;14.40;;;2.35;;
44670;SDS011;48397;53.016;-2.260;2022-10-17T06:40:07;26.38;;;3.92;;
44670;SDS011;48397;53.016;-2.260;2022-10-17T06:42:40;16.25;;;2.95;;
44670;SDS011;48397;53.016;-2.260;2022-10-17T06:45:31;20.10;;;3.95;;
44670;SDS011;48397;53.016;-2.260;2022-10-17T06:48:16;16.80;;;3.40;;
44670;SDS011;48397;53.016;-2.260;2022-10-17T06:51:03;19.17;;;3.97;;
44670;SDS011;48397;53.016;-2.260;2022-10-17T06:53:42;20.60;;;3.03;;
44670;SDS011;48397;53.016;-2.260;2022-10-17T06:56:43;16.52;;;2.78;;
44670;SDS011;48397;53.016;-2.260;2022-10-17T06:59:38;22.77;;;3.40;;
44670;SDS011;48397;53.016;-2.260;2022-10-17T07:02:10;17.40;;;3.17;;
44670;SDS011;48397;53.016;-2.260;2022-10-17T07:07:06;24.48;;;3.67;;
44670;SDS011;48397;53.016;-2.260;2022-10-17T07:09:34;32.70;;;6.85;;
44670;SDS011;48397;53.016;-2.260;2022-10-17T07:12:02;20.55;;;3.50;;
44670;SDS011;48397;53.016;-2.260;2022-10-17T07:14:33;20.85;;;3.42;;
44670;SDS011;48397;53.016;-2.260;2022-10-17T07:17:02;17.67;;;4.15;;
44670;SDS011;48397;53.016;-2.260;2022-10-17T07:19:31;24.90;;;3.80;;
44670;SDS011;48397;53.016;-2.260;2022-10-17T07:21:59;19.73;;;3.40;;
44670;SDS011;48397;53.016;-2.260;2022-10-17T07:24:27;19.27;;;3.80;;
44670;SDS011;48397;53.016;-2.260;2022-10-17T07:27:11;25.05;;;3.53;;
44670;SDS011;48397;53.016;-2.260;2022-10-17T07:29:39;24.83;;;3.35;;
44670;SDS011;48397;53.016;-2.260;2022-10-17T07:32:10;22.70;;;5.07;;
44670;SDS011;48397;53.016;-2.260;2022-10-17T07:34:39;22.20;;;3.63;;
44670;SDS011;48397;53.016;-2.260;2022-10-17T07:37:09;25.42;;;4.55;;
44670;SDS011;48397;53.016;-2.260;2022-10-17T07:39:41;23.77;;;5.55;;
44670;SDS011;48397;53.016;-2.260;2022-10-17T07:42:09;23.05;;;5.47;;
44670;SDS011;48397;53.016;-2.260;2022-10-17T07:44:36;28.92;;;5.05;;
44670;SDS011;48397;53.016;-2.260;2022-10-17T07:47:04;38.22;;;6.18;;
44670;SDS011;48397;53.016;-2.260;2022-10-17T07:49:34;35.60;;;7.50;;
44670;SDS011;48397;53.016;-2.260;2022-10-17T07:52:12;26.50;;;5.10;;
44670;SDS011;48397;53.016;-2.260;2022-10-17T07:54:40;26.92;;;4.95;;
44670;SDS011;48397;53.016;-2.260;2022-10-17T07:59:36;28.58;;;5.90;;
44670;SDS011;48397;53.016;-2.260;2022-10-17T08:04:33;21.67;;;3.70;;
44670;SDS011;48397;53.016;-2.260;2022-10-17T08:07:02;22.88;;;3.78;;
44670;SDS011;48397;53.016;-2.260;2022-10-17T08:09:48;22.38;;;5.18;;
44670;SDS011;48397;53.016;-2.260;2022-10-17T08:12:16;23.83;;;4.15;;
44670;SDS011;48397;53.016;-2.260;2022-10-17T08:17:11;25.65;;;4.50;;
44670;SDS011;48397;53.016;-2.260;2022-10-17T08:19:38;22.20;;;3.53;;
44670;SDS011;48397;53.016;-2.260;2022-10-17T08:22:06;20.20;;;3.20;;
44670;SDS011;48397;53.016;-2.260;2022-10-17T08:24:34;28.88;;;5.78;;
44670;SDS011;48397;53.016;-2.260;2022-10-17T08:27:02;22.45;;;3.42;;
44670;SDS011;48397;53.016;-2.260;2022-10-17T08:29:35;16.85;;;2.90;;
44670;SDS011;48397;53.016;-2.260;2022-10-17T08:32:03;14.57;;;2.83;;
44670;SDS011;48397;53.016;-2.260;2022-10-17T08:34:35;14.15;;;2.60;;
44670;SDS011;48397;53.016;-2.260;2022-10-17T08:37:03;23.52;;;4.28;;
44670;SDS011;48397;53.016;-2.260;2022-10-17T08:39:31;58.42;;;4.43;;
44670;SDS011;48397;53.016;-2.260;2022-10-17T08:47:26;27.77;;;3.25;;
44670;SDS011;48397;53.016;-2.260;2022-10-17T08:50:01;20.60;;;2.63;;
44670;SDS011;48397;53.016;-2.260;2022-10-17T08:52:38;18.73;;;3.08;;
44670;SDS011;48397;53.016;-2.260;2022-10-17T08:58:11;17.67;;;2.45;;
44670;SDS011;48397;53.016;-2.260;2022-10-17T09:06:19;22.52;;;2.50;;
44670;SDS011;48397;53.016;-2.260;2022-10-17T09:20:37;13.98;;;1.75;;
44670;SDS011;48397;53.016;-2.260;2022-10-17T09:23:19;13.75;;;1.98;;
44670;SDS011;48397;53.016;-2.260;2022-10-17T09:25:54;17.55;;;2.38;;
44670;SDS011;48397;53.016;-2.260;2022-10-17T09:36:27;16.75;;;2.22;;
44670;SDS011;48397;53.016;-2.260;2022-10-17T09:39:01;16.27;;;1.88;;
44670;SDS011;48397;53.016;-2.260;2022-10-17T09:41:45;20.15;;;1.73;;
44670;SDS011;48397;53.016;-2.260;2022-10-17T09:44:33;14.85;;;2.25;;
44670;SDS011;48397;53.016;-2.260;2022-10-17T09:50:19;22.77;;;2.30;;
44670;SDS011;48397;53.016;-2.260;2022-10-17T09:52:55;14.38;;;1.58;;
44670;SDS011;48397;53.016;-2.260;2022-10-17T09:55:42;17.30;;;1.95;;
44670;SDS011;48397;53.016;-2.260;2022-10-17T09:58:13;11.95;;;1.65;;
44670;SDS011;48397;53.016;-2.260;2022-10-17T10:00:42;18.52;;;2.65;;
44670;SDS011;48397;53.016;-2.260;2022-10-17T10:06:08;18.65;;;3.17;;
44670;SDS011;48397;53.016;-2.260;2022-10-17T10:11:22;12.40;;;1.63;;
44670;SDS011;48397;53.016;-2.260;2022-10-17T10:14:10;16.88;;;2.13;;
44670;SDS011;48397;53.016;-2.260;2022-10-17T10:16:40;17.02;;;1.95;;
44670;SDS011;48397;53.016;-2.260;2022-10-17T10:19:23;13.18;;;2.10;;
44670;SDS011;48397;53.016;-2.260;2022-10-17T10:21:56;12.13;;;1.77;;
44670;SDS011;48397;53.016;-2.260;2022-10-17T10:24:29;13.70;;;2.47;;
44670;SDS011;48397;53.016;-2.260;2022-10-17T10:26:58;17.77;;;2.20;;
44670;SDS011;48397;53.016;-2.260;2022-10-17T10:29:36;12.10;;;1.88;;
44670;SDS011;48397;53.016;-2.260;2022-10-17T10:32:23;11.07;;;1.92;;
44670;SDS011;48397;53.016;-2.260;2022-10-17T10:37:33;15.43;;;2.38;;
44670;SDS011;48397;53.016;-2.260;2022-10-17T10:40:05;17.23;;;2.10;;
44670;SDS011;48397;53.016;-2.260;2022-10-17T10:42:42;16.58;;;2.08;;
44670;SDS011;48397;53.016;-2.260;2022-10-17T10:45:24;12.82;;;2.08;;
44670;SDS011;48397;53.016;-2.260;2022-10-17T10:48:22;14.25;;;1.80;;
44670;SDS011;48397;53.016;-2.260;2022-10-17T10:51:04;9.95;;;1.88;;
44670;SDS011;48397;53.016;-2.260;2022-10-17T10:56:39;11.75;;;2.35;;
44670;SDS011;48397;53.016;-2.260;2022-10-17T10:59:16;12.40;;;1.80;;
44670;SDS011;48397;53.016;-2.260;2022-10-17T11:04:30;13.23;;;2.22;;
44670;SDS011;48397;53.016;-2.260;2022-10-17T11:07:13;4.72;;;1.23;;
44670;SDS011;48397;53.016;-2.260;2022-10-17T11:17:44;10.07;;;1.98;;
44670;SDS011;48397;53.016;-2.260;2022-10-17T11:25:51;13.48;;;1.30;;
44670;SDS011;48397;53.016;-2.260;2022-10-17T11:28:22;11.27;;;1.65;;
44670;SDS011;48397;53.016;-2.260;2022-10-17T11:30:52;8.75;;;1.30;;
44670;SDS011;48397;53.016;-2.260;2022-10-17T11:36:22;13.52;;;1.70;;
44670;SDS011;48397;53.016;-2.260;2022-10-17T11:39:05;15.85;;;1.80;;
44670;SDS011;48397;53.016;-2.260;2022-10-17T11:41:42;6.65;;;1.70;;
44670;SDS011;48397;53.016;-2.260;2022-10-17T11:44:26;5.07;;;1.13;;
44670;SDS011;48397;53.016;-2.260;2022-10-17T11:50:11;15.15;;;1.90;;
44670;SDS011;48397;53.016;-2.260;2022-10-17T11:53:49;8.18;;;1.42;;
44670;SDS011;48397;53.016;-2.260;2022-10-17T11:57:06;16.90;;;2.10;;
44670;SDS011;48397;53.016;-2.260;2022-10-17T12:02:31;15.60;;;1.70;;
44670;SDS011;48397;53.016;-2.260;2022-10-17T12:07:58;7.85;;;1.52;;
44670;SDS011;48397;53.016;-2.260;2022-10-17T12:10:32;14.70;;;2.10;;
44670;SDS011;48397;53.016;-2.260;2022-10-17T12:18:46;12.27;;;2.10;;
44670;SDS011;48397;53.016;-2.260;2022-10-17T12:24:33;12.20;;;2.58;;
44670;SDS011;48397;53.016;-2.260;2022-10-17T12:29:49;10.27;;;1.90;;
44670;SDS011;48397;53.016;-2.260;2022-10-17T12:32:23;7.07;;;1.80;;
44670;SDS011;48397;53.016;-2.260;2022-10-17T12:34:59;13.10;;;1.90;;
44670;SDS011;48397;53.016;-2.260;2022-10-17T12:51:07;9.32;;;1.52;;
44670;SDS011;48397;53.016;-2.260;2022-10-17T12:54:00;10.05;;;1.63;;
44670;SDS011;48397;53.016;-2.260;2022-10-17T12:56:36;13.05;;;1.90;;
44670;SDS011;48397;53.016;-2.260;2022-10-17T12:59:19;12.40;;;1.70;;
44670;SDS011;48397;53.016;-2.260;2022-10-17T13:01:51;13.70;;;2.50;;
44670;SDS011;48397;53.016;-2.260;2022-10-17T13:04:22;16.23;;;1.73;;
44670;SDS011;48397;53.016;-2.260;2022-10-17T13:06:51;16.50;;;2.25;;
44670;SDS011;48397;53.016;-2.260;2022-10-17T13:09:29;13.50;;;1.92;;
44670;SDS011;48397;53.016;-2.260;2022-10-17T13:12:11;13.57;;;1.77;;
44670;SDS011;48397;53.016;-2.260;2022-10-17T13:14:43;11.40;;;1.90;;
44670;SDS011;48397;53.016;-2.260;2022-10-17T13:17:24;10.93;;;1.77;;
44670;SDS011;48397;53.016;-2.260;2022-10-17T13:19:54;11.23;;;1.90;;
44670;SDS011;48397;53.016;-2.260;2022-10-17T13:22:26;13.93;;;1.60;;
44670;SDS011;48397;53.016;-2.260;2022-10-17T13:28:03;13.23;;;1.63;;
44670;SDS011;48397;53.016;-2.260;2022-10-17T13:30:38;14.07;;;1.45;;
44670;SDS011;48397;53.016;-2.260;2022-10-17T13:33:31;8.18;;;2.00;;
44670;SDS011;48397;53.016;-2.260;2022-10-17T13:36:01;13.02;;;1.75;;
44670;SDS011;48397;53.016;-2.260;2022-10-17T13:38:34;13.27;;;2.58;;
44670;SDS011;48397;53.016;-2.260;2022-10-17T13:41:12;7.32;;;1.20;;
44670;SDS011;48397;53.016;-2.260;2022-10-17T13:44:02;13.02;;;1.55;;
44670;SDS011;48397;53.016;-2.260;2022-10-17T13:46:39;10.35;;;1.65;;
44670;SDS011;48397;53.016;-2.260;2022-10-17T13:49:30;6.35;;;1.27;;
44670;SDS011;48397;53.016;-2.260;2022-10-17T13:52:00;5.70;;;1.35;;
44670;SDS011;48397;53.016;-2.260;2022-10-17T13:54:39;6.70;;;1.05;;
44670;SDS011;48397;53.016;-2.260;2022-10-17T13:57:16;9.18;;;1.15;;
44670;SDS011;48397;53.016;-2.260;2022-10-17T13:59:51;7.40;;;1.67;;
44670;SDS011;48397;53.016;-2.260;2022-10-17T14:02:23;8.88;;;1.33;;
44670;SDS011;48397;53.016;-2.260;2022-10-17T14:04:59;7.15;;;1.33;;
44670;SDS011;48397;53.016;-2.260;2022-10-17T14:10:41;10.68;;;2.05;;
44670;SDS011;48397;53.016;-2.260;2022-10-17T14:13:21;4.90;;;1.20;;
44670;SDS011;48397;53.016;-2.260;2022-10-17T14:15:54;8.75;;;1.70;;
44670;SDS011;48397;53.016;-2.260;2022-10-17T14:18:32;6.10;;;1.25;;
44670;SDS011;48397;53.016;-2.260;2022-10-17T14:21:04;19.60;;;1.73;;
44670;SDS011;48397;53.016;-2.260;2022-10-17T14:26:58;8.30;;;1.45;;
44670;SDS011;48397;53.016;-2.260;2022-10-17T14:29:28;7.20;;;1.55;;
44670;SDS011;48397;53.016;-2.260;2022-10-17T14:32:03;5.65;;;1.30;;
44670;SDS011;48397;53.016;-2.260;2022-10-17T14:34:35;7.15;;;1.10;;
44670;SDS011;48397;53.016;-2.260;2022-10-17T14:37:18;7.20;;;1.60;;
44670;SDS011;48397;53.016;-2.260;2022-10-17T14:40:19;4.97;;;0.90;;
44670;SDS011;48397;53.016;-2.260;2022-10-17T14:42:53;8.68;;;1.35;;
44670;SDS011;48397;53.016;-2.260;2022-10-17T14:45:42;6.60;;;1.38;;
44670;SDS011;48397;53.016;-2.260;2022-10-17T14:48:14;7.15;;;1.20;;
44670;SDS011;48397;53.016;-2.260;2022-10-17T14:53:33;7.47;;;1.63;;
44670;SDS011;48397;53.016;-2.260;2022-10-17T14:56:04;10.05;;;1.35;;
44670;SDS011;48397;53.016;-2.260;2022-10-17T14:58:51;6.38;;;1.63;;
44670;SDS011;48397;53.016;-2.260;2022-10-17T15:01:20;6.43;;;1.17;;
44670;SDS011;48397;53.016;-2.260;2022-10-17T15:03:49;5.10;;;1.40;;
44670;SDS011;48397;53.016;-2.260;2022-10-17T15:06:25;9.88;;;1.75;;
44670;SDS011;48397;53.016;-2.260;2022-10-17T15:08:55;9.33;;;1.63;;
44670;SDS011;48397;53.016;-2.260;2022-10-17T15:11:23;9.40;;;1.35;;
44670;SDS011;48397;53.016;-2.260;2022-10-17T15:13:53;7.53;;;1.30;;
44670;SDS011;48397;53.016;-2.260;2022-10-17T15:16:23;11.27;;;1.45;;
44670;SDS011;48397;53.016;-2.260;2022-10-17T15:18:54;6.30;;;1.50;;
44670;SDS011;48397;53.016;-2.260;2022-10-17T15:21:22;8.00;;;1.30;;
44670;SDS011;48397;53.016;-2.260;2022-10-17T15:24:07;6.85;;;1.40;;
44670;SDS011;48397;53.016;-2.260;2022-10-17T15:26:35;5.68;;;1.10;;
44670;SDS011;48397;53.016;-2.260;2022-10-17T15:31:33;6.97;;;1.00;;
44670;SDS011;48397;53.016;-2.260;2022-10-17T15:34:01;9.10;;;1.48;;
44670;SDS011;48397;53.016;-2.260;2022-10-17T15:36:31;7.20;;;1.23;;
44670;SDS011;48397;53.016;-2.260;2022-10-17T15:39:12;9.13;;;1.60;;
44670;SDS011;48397;53.016;-2.260;2022-10-17T15:41:40;10.55;;;1.33;;
44670;SDS011;48397;53.016;-2.260;2022-10-17T15:44:09;9.05;;;1.38;;
44670;SDS011;48397;53.016;-2.260;2022-10-17T15:46:37;13.70;;;2.08;;
44670;SDS011;48397;53.016;-2.260;2022-10-17T15:49:11;6.82;;;1.30;;
44670;SDS011;48397;53.016;-2.260;2022-10-17T15:51:40;5.93;;;1.33;;
44670;SDS011;48397;53.016;-2.260;2022-10-17T15:54:08;11.65;;;1.85;;
44670;SDS011;48397;53.016;-2.260;2022-10-17T15:59:09;10.98;;;1.75;;
44670;SDS011;48397;53.016;-2.260;2022-10-17T16:01:42;8.65;;;1.65;;
44670;SDS011;48397;53.016;-2.260;2022-10-17T16:04:10;10.23;;;2.10;;
44670;SDS011;48397;53.016;-2.260;2022-10-17T16:06:41;6.55;;;1.67;;
44670;SDS011;48397;53.016;-2.260;2022-10-17T16:09:09;9.32;;;1.67;;
44670;SDS011;48397;53.016;-2.260;2022-10-17T16:14:10;8.90;;;1.63;;
44670;SDS011;48397;53.016;-2.260;2022-10-17T16:16:39;13.07;;;2.50;;
44670;SDS011;48397;53.016;-2.260;2022-10-17T16:19:08;10.65;;;1.67;;
44670;SDS011;48397;53.016;-2.260;2022-10-17T16:24:05;6.18;;;1.13;;
44670;SDS011;48397;53.016;-2.260;2022-10-17T16:26:32;7.32;;;1.40;;
44670;SDS011;48397;53.016;-2.260;2022-10-17T16:29:00;7.88;;;1.52;;
44670;SDS011;48397;53.016;-2.260;2022-10-17T16:31:32;7.95;;;1.33;;
44670;SDS011;48397;53.016;-2.260;2022-10-17T16:34:01;7.30;;;1.88;;
44670;SDS011;48397;53.016;-2.260;2022-10-17T16:36:30;34.88;;;3.72;;
44670;SDS011;48397;53.016;-2.260;2022-10-17T16:38:59;6.40;;;1.27;;
44670;SDS011;48397;53.016;-2.260;2022-10-17T16:44:00;6.75;;;1.27;;
44670;SDS011;48397;53.016;-2.260;2022-10-17T16:46:30;10.05;;;1.38;;
44670;SDS011;48397;53.016;-2.260;2022-10-17T16:48:59;8.10;;;1.70;;
44670;SDS011;48397;53.016;-2.260;2022-10-17T16:51:26;20.00;;;1.98;;
44670;SDS011;48397;53.016;-2.260;2022-10-17T16:53:56;5.88;;;1.13;;
44670;SDS011;48397;53.016;-2.260;2022-10-17T16:56:26;8.43;;;1.60;;
44670;SDS011;48397;53.016;-2.260;2022-10-17T16:58:55;5.75;;;1.05;;
44670;SDS011;48397;53.016;-2.260;2022-10-17T17:01:23;5.97;;;1.50;;
44670;SDS011;48397;53.016;-2.260;2022-10-17T17:03:52;14.38;;;1.65;;
44670;SDS011;48397;53.016;-2.260;2022-10-17T17:06:23;12.02;;;1.95;;
44670;SDS011;48397;53.016;-2.260;2022-10-17T17:08:53;13.57;;;2.22;;
44670;SDS011;48397;53.016;-2.260;2022-10-17T17:11:23;7.72;;;1.65;;
44670;SDS011;48397;53.016;-2.260;2022-10-17T17:13:53;8.95;;;2.20;;
44670;SDS011;48397;53.016;-2.260;2022-10-17T17:16:22;5.65;;;1.92;;
44670;SDS011;48397;53.016;-2.260;2022-10-17T17:18:58;6.93;;;1.42;;
44670;SDS011;48397;53.016;-2.260;2022-10-17T17:21:27;5.68;;;1.38;;
44670;SDS011;48397;53.016;-2.260;2022-10-17T17:23:56;7.80;;;1.45;;
44670;SDS011;48397;53.016;-2.260;2022-10-17T17:26:25;8.68;;;1.48;;
44670;SDS011;48397;53.016;-2.260;2022-10-17T17:28:56;9.40;;;2.13;;
44670;SDS011;48397;53.016;-2.260;2022-10-17T17:31:26;7.28;;;1.75;;
44670;SDS011;48397;53.016;-2.260;2022-10-17T17:33:55;6.25;;;1.65;;
44670;SDS011;48397;53.016;-2.260;2022-10-17T17:38:56;10.32;;;1.50;;
44670;SDS011;48397;53.016;-2.260;2022-10-17T17:41:26;8.15;;;1.33;;
44670;SDS011;48397;53.016;-2.260;2022-10-17T17:43:54;9.10;;;1.60;;
44670;SDS011;48397;53.016;-2.260;2022-10-17T17:46:23;3.63;;;1.30;;
44670;SDS011;48397;53.016;-2.260;2022-10-17T17:48:52;18.02;;;1.73;;
44670;SDS011;48397;53.016;-2.260;2022-10-17T17:51:22;9.57;;;1.20;;
44670;SDS011;48397;53.016;-2.260;2022-10-17T17:53:55;4.40;;;1.27;;
44670;SDS011;48397;53.016;-2.260;2022-10-17T17:56:27;10.15;;;1.60;;
44670;SDS011;48397;53.016;-2.260;2022-10-17T17:58:57;10.43;;;1.80;;
44670;SDS011;48397;53.016;-2.260;2022-10-17T18:01:28;17.13;;;1.90;;
44670;SDS011;48397;53.016;-2.260;2022-10-17T18:03:57;8.55;;;1.35;;
44670;SDS011;48397;53.016;-2.260;2022-10-17T18:06:25;6.95;;;1.02;;
44670;SDS011;48397;53.016;-2.260;2022-10-17T18:08:55;12.98;;;1.42;;